CheckWX is a tool to help pilots better visualize weather data.  It is not intended as a substitute for an official pre-flight weather briefing.

09:41:18 UTC

PABI METAR
Allen AAF Airport
Delta Junction Ft Greely, Alaska, USA
Current

48 mins ago

PABI 280853Z AUTO 26006KT 10SM OVC034 M20/M24 A2984 RMK AO2 SLP163 T12001244 411441283 53015 TSNO $
Observed
Feb-28 @ 08:53 UTC
Wind
  • 260° at 6 KTS
Visibility
10 SM
Flight Rules
VFR
Cloud Levels
  • Overcast at 3,400' AGL
Temperature
-20°C / -4°F
Dewpoint
-24°C / -11°F
Humidity
71%
Altimeter
29.84" Hg
Pressure
1010.52 hPa
Previous

2 hours ago

PABI 280753Z AUTO 27005KT 10SM OVC033 M19/M23 A2982 RMK AO2 SLP157 T11891233 TSNO
Observed
Feb-28 @ 07:53 UTC
Wind
  • 270° at 5 KTS
Visibility
10 SM
Flight Rules
VFR
Cloud Levels
  • Overcast at 3,300' AGL
Temperature
-19°C / -2°F
Dewpoint
-23°C / -9°F
Humidity
71%
Altimeter
29.82" Hg
Pressure
1009.82 hPa
Previous

3 hours ago

PABI 280653Z AUTO 26006KT 10SM OVC035 M19/M24 A2981 RMK AO2 SLP158 T11891239 TSNO
Observed
Feb-28 @ 06:53 UTC
Wind
  • 260° at 6 KTS
Visibility
10 SM
Flight Rules
VFR
Cloud Levels
  • Overcast at 3,500' AGL
Temperature
-19°C / -2°F
Dewpoint
-24°C / -11°F
Humidity
65%
Altimeter
29.81" Hg
Pressure
1009.52 hPa